Time;durP1;ratioP1;P1;durP2;ratioP2;P2;SDS_P1;SDS_P2;PMS_P1;PMS_P2;Temp;Humidity;BMP_temperature;BMP_pressure;BME280_temperature;BME280_humidity;BME280_pressure;Samples;Min_cycle;Max_cycle;Signal;HPM_P1;HPM_P2
2022/02/26 00:01:32;;;;;;;15.73;8.60;;;2.40;99.90;;;;;;5044248;28;20460;-80
2022/02/26 00:03:59;;;;;;;10.70;4.93;;;2.30;99.90;;;;;;5045295;28;20480;-80
2022/02/26 00:06:26;;;;;;;13.17;6.13;;;2.30;99.90;;;;;;5043433;28;20466;-80
2022/02/26 00:08:52;;;;;;;13.83;6.20;;;2.30;99.90;;;;;;5044140;28;20544;-80
2022/02/26 00:11:19;;;;;;;21.87;8.83;;;2.30;99.90;;;;;;5042844;28;20637;-80
2022/02/26 00:13:46;;;;;;;9.53;4.90;;;2.40;99.90;;;;;;5045383;28;20472;-80
2022/02/26 00:16:13;;;;;;;15.33;6.17;;;2.40;99.90;;;;;;5046027;28;20461;-79
2022/02/26 00:18:41;;;;;;;10.10;6.00;;;2.30;99.90;;;;;;5044607;28;20477;-80
2022/02/26 00:21:08;;;;;;;16.23;6.93;;;2.30;99.90;;;;;;5044292;28;20543;-80
2022/02/26 00:23:35;;;;;;;11.33;5.63;;;2.20;99.90;;;;;;5041986;28;20481;-80
2022/02/26 00:26:02;;;;;;;12.20;6.50;;;2.10;99.90;;;;;;5041864;28;20457;-80
2022/02/26 00:28:29;;;;;;;15.73;7.00;;;2.10;99.90;;;;;;5042158;28;20480;-80
2022/02/26 00:30:56;;;;;;;19.73;6.90;;;2.00;99.90;;;;;;5042088;28;20517;-80
2022/02/26 00:33:23;;;;;;;11.47;6.40;;;2.00;99.90;;;;;;5040181;28;20481;-79
2022/02/26 00:35:51;;;;;;;15.17;6.53;;;2.00;99.90;;;;;;5042517;28;20540;-80
2022/02/26 00:38:18;;;;;;;15.73;6.70;;;2.10;99.90;;;;;;5040471;28;20460;-81
2022/02/26 00:40:44;;;;;;;18.10;7.80;;;2.30;99.90;;;;;;5041754;28;20456;-80
2022/02/26 00:43:11;;;;;;;17.23;6.87;;;2.30;99.90;;;;;;5040999;28;20461;-80
2022/02/26 00:45:38;;;;;;;21.87;8.17;;;2.40;99.90;;;;;;5045847;28;20441;-78
2022/02/26 00:48:05;;;;;;;13.80;6.60;;;2.50;99.90;;;;;;5042552;28;20456;-82
2022/02/26 00:50:31;;;;;;;17.37;8.43;;;2.50;99.90;;;;;;5047966;28;20976;-81
2022/02/26 00:52:59;;;;;;;15.60;8.07;;;2.70;99.90;;;;;;5034595;28;20468;-78
2022/02/26 00:55:26;;;;;;;14.30;7.60;;;2.70;99.90;;;;;;5032252;28;20198;-78
2022/02/26 00:57:53;;;;;;;16.93;8.27;;;2.80;99.90;;;;;;5033569;28;20449;-80
2022/02/26 01:00:20;;;;;;;16.00;8.97;;;2.90;99.90;;;;;;5040565;28;20487;-80
2022/02/26 01:02:47;;;;;;;12.10;7.73;;;3.00;99.90;;;;;;5039889;28;20472;-80
2022/02/26 01:05:14;;;;;;;16.73;8.17;;;3.00;99.90;;;;;;5040886;28;20457;-80
2022/02/26 01:07:41;;;;;;;18.50;10.03;;;3.10;99.90;;;;;;5040856;28;20925;-80
2022/02/26 01:10:10;;;;;;;12.80;6.87;;;3.00;99.90;;;;;;5041663;28;20456;-79
2022/02/26 01:12:37;;;;;;;19.87;7.47;;;3.10;99.90;;;;;;5044619;28;20500;-80
2022/02/26 01:15:04;;;;;;;22.90;7.70;;;3.10;99.90;;;;;;5043348;28;20978;-80
2022/02/26 01:17:31;;;;;;;28.60;9.90;;;3.20;99.90;;;;;;5044601;28;20450;-80
2022/02/26 01:19:58;;;;;;;15.60;7.57;;;3.10;99.90;;;;;;5044206;28;20496;-80
2022/02/26 01:22:25;;;;;;;14.40;6.70;;;3.30;99.90;;;;;;5043777;28;20445;-80
2022/02/26 01:24:52;;;;;;;16.23;7.97;;;3.30;99.90;;;;;;5042599;28;20454;-80
2022/02/26 01:27:20;;;;;;;15.63;7.80;;;3.30;99.90;;;;;;5042349;28;20459;-80
2022/02/26 01:29:47;;;;;;;20.73;7.60;;;3.40;99.90;;;;;;5043251;28;20452;-80
2022/02/26 01:32:14;;;;;;;16.60;7.53;;;3.40;99.90;;;;;;5023997;28;20476;-80
2022/02/26 01:34:41;;;;;;;20.80;7.53;;;3.40;99.90;;;;;;5030208;28;20962;-80
2022/02/26 01:37:08;;;;;;;17.27;7.67;;;3.50;99.90;;;;;;5041154;28;20545;-79
2022/02/26 01:39:35;;;;;;;16.10;7.37;;;3.60;99.90;;;;;;5035716;28;20481;-79
2022/02/26 01:42:02;;;;;;;11.00;6.93;;;3.50;99.90;;;;;;5035592;28;20448;-79
2022/02/26 01:44:30;;;;;;;19.63;8.27;;;3.50;99.90;;;;;;5038523;28;20476;-79
2022/02/26 01:46:57;;;;;;;14.63;7.00;;;3.50;99.90;;;;;;5037294;28;20536;-79
2022/02/26 01:49:23;;;;;;;12.80;6.33;;;3.40;99.90;;;;;;5037380;28;20459;-79
2022/02/26 01:51:51;;;;;;;16.77;6.67;;;3.40;99.90;;;;;;5037473;28;20772;-78
2022/02/26 01:54:19;;;;;;;14.03;7.40;;;3.40;99.90;;;;;;5036435;28;20898;-78
2022/02/26 01:56:47;;;;;;;16.10;7.03;;;3.30;99.90;;;;;;5038080;28;20457;-79
2022/02/26 01:59:13;;;;;;;16.30;7.40;;;3.40;99.90;;;;;;5035526;28;20480;-80
2022/02/26 02:01:41;;;;;;;11.60;6.47;;;3.50;99.90;;;;;;5042737;28;20453;-79
2022/02/26 02:04:08;;;;;;;12.07;6.73;;;3.40;99.90;;;;;;5043070;28;20473;-79
2022/02/26 02:06:35;;;;;;;9.60;6.40;;;3.40;99.90;;;;;;5042930;28;20456;-79
2022/02/26 02:09:02;;;;;;;12.17;6.47;;;3.30;99.90;;;;;;5042522;28;20831;-79
2022/02/26 02:11:30;;;;;;;15.87;6.97;;;3.30;99.90;;;;;;5042169;28;20472;-81
2022/02/26 02:13:57;;;;;;;12.60;5.50;;;3.30;99.90;;;;;;5041709;28;20473;-80
2022/02/26 02:16:24;;;;;;;12.90;6.03;;;3.20;99.90;;;;;;5041581;28;20449;-80
2022/02/26 02:18:52;;;;;;;15.07;6.70;;;3.10;99.90;;;;;;5040961;28;20466;-80
2022/02/26 02:21:19;;;;;;;13.70;5.43;;;3.00;99.90;;;;;;5043080;28;20449;-80
2022/02/26 02:23:48;;;;;;;28.77;8.37;;;3.00;99.90;;;;;;5041817;28;20473;-81
2022/02/26 02:26:15;;;;;;;10.27;6.40;;;3.00;99.90;;;;;;5047263;28;20456;-80
2022/02/26 02:28:42;;;;;;;16.33;7.00;;;3.00;99.90;;;;;;5046367;28;20445;-79
2022/02/26 02:31:09;;;;;;;13.70;7.60;;;3.10;99.90;;;;;;5046877;28;20503;-81
2022/02/26 02:33:40;;;;;;;14.70;5.90;;;3.10;99.90;;;;;;5046206;28;20476;-80
2022/02/26 02:36:08;;;;;;;15.30;6.63;;;3.20;99.90;;;;;;5042971;28;20459;-79
2022/02/26 02:38:35;;;;;;;14.33;5.83;;;3.20;99.90;;;;;;5037741;28;20457;-81
2022/02/26 02:41:04;;;;;;;15.70;6.83;;;3.20;99.90;;;;;;5044498;28;20480;-81
2022/02/26 02:43:31;;;;;;;17.67;7.50;;;3.30;99.90;;;;;;5037601;28;20474;-79
2022/02/26 02:45:58;;;;;;;9.70;5.97;;;3.20;99.90;;;;;;5036887;28;20528;-81
2022/02/26 02:48:24;;;;;;;11.47;6.20;;;3.20;99.90;;;;;;5050058;28;20521;-81
2022/02/26 02:50:52;;;;;;;14.40;6.73;;;3.20;99.90;;;;;;5050426;28;20437;-82
2022/02/26 02:53:19;;;;;;;13.67;7.27;;;3.20;99.90;;;;;;5049729;28;20500;-81
2022/02/26 02:55:46;;;;;;;12.37;6.70;;;3.20;99.90;;;;;;5046630;28;20520;-78
2022/02/26 02:58:14;;;;;;;12.77;5.50;;;3.20;99.90;;;;;;5037526;28;20447;-79
2022/02/26 03:00:41;;;;;;;11.83;6.47;;;3.20;99.90;;;;;;5043686;28;20568;-79
2022/02/26 03:03:08;;;;;;;12.93;5.13;;;3.30;99.90;;;;;;5043303;28;20479;-79
2022/02/26 03:05:35;;;;;;;10.93;5.17;;;3.40;99.90;;;;;;5040987;28;21164;-78
2022/02/26 03:08:03;;;;;;;16.93;6.57;;;3.50;99.90;;;;;;5040144;28;20457;-80
2022/02/26 03:10:30;;;;;;;12.40;6.47;;;3.60;99.90;;;;;;5040898;28;20968;-79
2022/02/26 03:12:56;;;;;;;20.93;7.53;;;3.60;99.90;;;;;;5041296;28;20473;-80
2022/02/26 03:15:25;;;;;;;14.80;6.57;;;3.70;99.90;;;;;;5043586;28;20891;-79
2022/02/26 03:17:52;;;;;;;15.87;6.70;;;3.70;99.90;;;;;;5047388;28;20450;-80
2022/02/26 03:20:19;;;;;;;10.57;6.67;;;3.80;99.90;;;;;;5040297;28;20557;-80
2022/02/26 03:22:46;;;;;;;22.63;7.23;;;3.80;99.90;;;;;;5040838;28;20483;-80
2022/02/26 03:25:14;;;;;;;195.70;92.87;;;3.80;99.90;;;;;;5043676;28;20537;-80
2022/02/26 03:27:41;;;;;;;42.40;22.10;;;3.80;99.90;;;;;;5040407;28;20450;-79
2022/02/26 03:30:10;;;;;;;24.53;11.40;;;3.80;99.90;;;;;;5045935;28;20524;-79
2022/02/26 03:32:40;;;;;;;17.03;8.10;;;3.90;99.90;;;;;;5042990;28;20474;-81
2022/02/26 03:35:08;;;;;;;16.93;7.40;;;3.90;99.90;;;;;;5046070;28;20451;-82
2022/02/26 03:37:34;;;;;;;23.37;8.73;;;3.90;99.90;;;;;;5046417;28;20451;-79
2022/02/26 03:40:02;;;;;;;14.37;7.30;;;4.00;99.90;;;;;;5040353;28;20473;-80
2022/02/26 03:42:29;;;;;;;17.87;8.40;;;4.00;99.90;;;;;;5040552;28;20469;-80
2022/02/26 03:44:56;;;;;;;19.83;8.00;;;4.00;99.90;;;;;;5040285;28;20455;-78
2022/02/26 03:47:22;;;;;;;20.03;8.30;;;4.00;99.90;;;;;;5041620;28;20460;-79
2022/02/26 03:49:51;;;;;;;11.83;7.03;;;4.00;99.90;;;;;;5041038;28;20461;-80
2022/02/26 03:52:19;;;;;;;12.53;7.03;;;3.90;99.90;;;;;;5042163;28;20549;-80
2022/02/26 03:54:45;;;;;;;14.73;7.63;;;3.90;99.90;;;;;;5043999;28;20454;-79
2022/02/26 03:57:12;;;;;;;10.93;6.83;;;3.90;99.90;;;;;;5040530;28;20468;-79
2022/02/26 03:59:39;;;;;;;16.77;8.40;;;3.80;99.90;;;;;;5039761;28;20459;-79
2022/02/26 04:02:06;;;;;;;11.10;7.60;;;3.70;99.90;;;;;;5040192;28;20534;-80
2022/02/26 04:04:33;;;;;;;18.33;8.17;;;3.50;99.90;;;;;;5043487;28;20494;-79
2022/02/26 04:07:01;;;;;;;13.90;6.83;;;3.50;99.90;;;;;;5041664;28;20457;-80
2022/02/26 04:09:28;;;;;;;13.20;6.50;;;3.40;99.90;;;;;;5040311;28;20449;-79
2022/02/26 04:11:54;;;;;;;17.90;7.10;;;3.30;99.90;;;;;;5039443;28;20445;-79
2022/02/26 04:14:21;;;;;;;20.90;7.90;;;3.30;99.90;;;;;;5041386;28;20477;-80
2022/02/26 04:16:48;;;;;;;11.33;7.50;;;3.20;99.90;;;;;;5043540;28;20450;-80
2022/02/26 04:19:15;;;;;;;17.70;8.20;;;3.20;99.90;;;;;;5040760;28;20460;-80
2022/02/26 04:21:41;;;;;;;11.70;7.23;;;3.20;99.90;;;;;;5039373;28;20494;-79
2022/02/26 04:24:10;;;;;;;14.30;7.20;;;3.20;99.90;;;;;;5038124;28;20877;-80
2022/02/26 04:26:37;;;;;;;18.73;8.33;;;3.20;99.90;;;;;;5043481;28;20459;-80
2022/02/26 04:29:04;;;;;;;18.07;8.40;;;3.10;99.90;;;;;;5039203;28;20457;-79
2022/02/26 04:31:31;;;;;;;15.30;8.37;;;2.90;99.90;;;;;;5039151;28;21084;-79
2022/02/26 04:33:57;;;;;;;10.77;8.00;;;2.80;99.90;;;;;;5038894;28;20819;-80
2022/02/26 04:36:24;;;;;;;13.70;7.40;;;2.80;99.90;;;;;;5046874;28;20543;-81
2022/02/26 04:38:51;;;;;;;16.33;8.90;;;2.60;99.90;;;;;;5039096;28;20455;-80
2022/02/26 04:41:19;;;;;;;15.13;8.00;;;2.40;99.90;;;;;;5042231;28;20495;-79
2022/02/26 04:43:46;;;;;;;16.97;8.70;;;2.40;99.90;;;;;;5043231;28;20479;-79
2022/02/26 04:46:13;;;;;;;17.30;10.10;;;2.40;99.90;;;;;;5044536;28;20448;-81
2022/02/26 04:48:40;;;;;;;13.53;8.90;;;2.30;99.90;;;;;;5035821;28;20977;-80
2022/02/26 04:51:09;;;;;;;21.43;9.47;;;2.20;99.90;;;;;;5038646;28;20449;-79
2022/02/26 04:53:36;;;;;;;15.63;7.83;;;2.10;99.90;;;;;;5038902;28;20473;-81
2022/02/26 04:56:04;;;;;;;20.50;9.13;;;2.10;99.90;;;;;;5042736;28;20879;-79
2022/02/26 04:58:34;;;;;;;13.57;7.70;;;2.00;99.90;;;;;;5043664;28;20487;-79
2022/02/26 05:01:01;;;;;;;17.90;8.60;;;2.00;99.90;;;;;;5038962;28;20737;-79
2022/02/26 05:03:28;;;;;;;20.10;8.37;;;1.90;99.90;;;;;;5050625;28;20500;-80
2022/02/26 05:05:55;;;;;;;11.40;8.00;;;1.80;99.90;;;;;;5051519;28;20453;-80
2022/02/26 05:08:22;;;;;;;14.83;7.77;;;1.80;99.90;;;;;;5040185;28;21037;-80
2022/02/26 05:10:49;;;;;;;18.27;9.20;;;1.70;99.90;;;;;;5038289;28;20445;-80
2022/02/26 05:13:15;;;;;;;19.80;9.80;;;1.70;99.90;;;;;;5039909;28;20588;-81
2022/02/26 05:15:44;;;;;;;15.40;7.90;;;1.60;99.90;;;;;;5041501;28;20480;-82
2022/02/26 05:18:10;;;;;;;12.63;7.80;;;1.60;99.90;;;;;;5041654;28;20461;-80
2022/02/26 05:20:37;;;;;;;17.43;9.17;;;1.60;99.90;;;;;;5040520;28;20853;-79
2022/02/26 05:23:04;;;;;;;11.63;6.97;;;1.60;99.90;;;;;;5041799;28;20507;-80
2022/02/26 05:25:31;;;;;;;17.27;8.63;;;1.50;99.90;;;;;;5039873;28;20454;-83
2022/02/26 05:27:58;;;;;;;16.93;8.17;;;1.50;99.90;;;;;;5040456;28;20460;-81
2022/02/26 05:30:25;;;;;;;16.80;8.87;;;1.40;99.90;;;;;;5039267;28;20532;-82
2022/02/26 05:32:54;;;;;;;13.97;8.30;;;1.40;99.90;;;;;;5039992;28;20488;-82
2022/02/26 05:35:20;;;;;;;19.43;8.37;;;1.30;99.90;;;;;;5048626;28;20486;-81
2022/02/26 05:37:47;;;;;;;11.83;7.67;;;1.30;99.90;;;;;;5047309;28;20445;-79
2022/02/26 05:40:15;;;;;;;19.93;8.90;;;1.30;99.90;;;;;;5035839;28;20516;-80
2022/02/26 05:42:42;;;;;;;19.53;8.70;;;1.20;99.90;;;;;;5034052;28;20484;-80
2022/02/26 05:45:10;;;;;;;15.93;8.40;;;1.20;99.90;;;;;;5038087;28;20447;-79
2022/02/26 05:47:36;;;;;;;16.20;8.80;;;1.20;99.90;;;;;;5036919;28;20524;-80
2022/02/26 05:50:06;;;;;;;18.83;11.07;;;1.30;99.90;;;;;;5033890;28;20457;-80
2022/02/26 05:52:32;;;;;;;18.30;9.00;;;1.20;99.90;;;;;;5017780;28;20486;-81
2022/02/26 05:54:59;;;;;;;16.27;9.23;;;1.20;99.90;;;;;;5015369;28;20456;-80
2022/02/26 05:57:26;;;;;;;20.23;9.20;;;1.30;99.90;;;;;;5035159;28;20453;-80
2022/02/26 05:59:53;;;;;;;21.30;9.57;;;1.30;99.90;;;;;;5035736;28;20449;-80
2022/02/26 06:02:20;;;;;;;14.25;9.02;;;1.20;99.90;;;;;;5035320;28;20484;-80
2022/02/26 06:04:47;;;;;;;20.33;11.07;;;1.20;99.90;;;;;;5035055;28;20205;-80
2022/02/26 06:07:15;;;;;;;16.07;9.67;;;1.20;99.90;;;;;;5034988;28;20533;-79
2022/02/26 06:09:41;;;;;;;16.63;9.30;;;1.20;99.90;;;;;;5016181;28;20450;-80
2022/02/26 06:12:09;;;;;;;17.67;10.55;;;1.20;99.90;;;;;;5035770;28;20460;-80
2022/02/26 06:14:36;;;;;;;17.88;10.25;;;1.10;99.90;;;;;;5033391;28;20202;-80
2022/02/26 06:17:03;;;;;;;15.98;9.30;;;1.00;99.90;;;;;;5035884;28;20206;-79
2022/02/26 06:19:30;;;;;;;20.05;11.57;;;1.00;99.90;;;;;;5035409;28;20210;-79
2022/02/26 06:21:56;;;;;;;23.90;10.80;;;1.00;99.90;;;;;;5038346;28;20700;-80
2022/02/26 06:24:25;;;;;;;17.15;9.77;;;1.10;99.90;;;;;;5038359;28;20237;-80
2022/02/26 06:26:52;;;;;;;13.23;10.25;;;1.20;99.90;;;;;;5039201;28;20218;-79
2022/02/26 06:29:19;;;;;;;24.70;12.03;;;1.30;99.90;;;;;;5039180;28;20215;-80
2022/02/26 06:31:46;;;;;;;31.60;15.43;;;1.40;99.90;;;;;;5028219;28;20449;-79
2022/02/26 06:34:12;;;;;;;31.80;16.23;;;1.60;99.90;;;;;;5025999;28;20476;-80
2022/02/26 06:36:39;;;;;;;24.00;13.20;;;1.70;99.90;;;;;;5029391;28;20453;-79
2022/02/26 06:39:06;;;;;;;26.80;18.80;;;1.90;99.90;;;;;;5026966;28;20453;-81
2022/02/26 06:41:34;;;;;;;31.80;14.97;;;2.00;99.90;;;;;;5033892;28;20487;-80
2022/02/26 06:44:01;;;;;;;98.60;47.93;;;2.10;99.90;;;;;;5027687;28;20536;-79
2022/02/26 06:46:29;;;;;;;57.33;30.17;;;2.30;99.90;;;;;;5028510;28;20455;-79
2022/02/26 06:48:56;;;;;;;34.57;20.77;;;2.40;99.90;;;;;;5028056;28;20449;-80
2022/02/26 06:51:22;;;;;;;56.30;26.93;;;2.50;99.90;;;;;;5028278;28;20456;-81
2022/02/26 06:53:49;;;;;;;51.47;26.40;;;2.50;99.90;;;;;;5029011;28;20472;-82
2022/02/26 06:56:16;;;;;;;42.77;21.73;;;2.50;99.90;;;;;;5030742;28;20465;-82
2022/02/26 06:58:46;;;;;;;40.33;24.73;;;2.60;99.90;;;;;;5028609;28;20456;-84
2022/02/26 07:01:12;;;;;;;49.63;26.43;;;2.70;99.90;;;;;;5029343;28;21075;-82
2022/02/26 07:03:39;;;;;;;52.43;28.73;;;2.70;99.90;;;;;;5027381;28;21004;-81
2022/02/26 07:06:06;;;;;;;57.70;28.60;;;2.90;99.90;;;;;;5028374;28;20448;-82
2022/02/26 07:08:33;;;;;;;57.23;38.10;;;2.80;99.90;;;;;;5029209;28;20445;-82
2022/02/26 07:11:00;;;;;;;82.90;39.20;;;2.90;99.90;;;;;;5026332;28;20450;-83
2022/02/26 07:13:27;;;;;;;97.03;35.07;;;2.90;99.90;;;;;;5027449;28;20492;-81
2022/02/26 07:15:58;;;;;;;88.73;37.97;;;3.00;99.90;;;;;;5028973;28;20455;-82
2022/02/26 07:18:24;;;;;;;59.00;28.90;;;2.90;99.90;;;;;;5031266;28;20539;-82
2022/02/26 07:20:51;;;;;;;52.90;27.37;;;3.00;99.90;;;;;;5026510;28;20476;-83
2022/02/26 07:23:18;;;;;;;52.00;28.30;;;3.10;99.90;;;;;;5026465;28;20485;-82
2022/02/26 07:25:51;;;;;;;86.20;31.10;;;3.20;99.90;;;;;;5028465;28;20451;-83
2022/02/26 07:28:18;;;;;;;96.43;38.90;;;3.20;99.90;;;;;;5029682;28;20888;-83
2022/02/26 07:30:46;;;;;;;62.73;30.07;;;3.10;99.90;;;;;;5028392;28;20533;-81
2022/02/26 07:33:14;;;;;;;66.90;31.30;;;3.10;99.90;;;;;;5025449;28;20500;-83
2022/02/26 07:35:43;;;;;;;62.10;27.93;;;3.10;99.90;;;;;;5029939;28;20452;-82
2022/02/26 07:38:09;;;;;;;47.10;27.03;;;3.20;99.90;;;;;;5027768;28;20465;-82
2022/02/26 07:40:41;;;;;;;58.80;30.20;;;3.30;99.90;;;;;;5029748;28;20965;-81
2022/02/26 07:43:08;;;;;;;54.90;27.13;;;3.30;99.90;;;;;;5027173;28;20532;-81
2022/02/26 07:45:35;;;;;;;47.50;28.03;;;3.30;99.90;;;;;;5019255;28;20450;-82
2022/02/26 07:48:02;;;;;;;78.80;29.07;;;3.40;99.90;;;;;;5033800;28;20462;-82
2022/02/26 07:50:30;;;;;;;62.87;28.93;;;3.40;99.90;;;;;;5036803;28;20453;-82
2022/02/26 07:52:57;;;;;;;44.23;25.53;;;3.50;99.90;;;;;;5038047;28;20483;-82
2022/02/26 07:55:24;;;;;;;33.77;20.70;;;3.50;99.90;;;;;;5038129;28;20450;-82
2022/02/26 07:57:51;;;;;;;46.43;28.10;;;3.60;99.90;;;;;;5038131;28;20457;-82
2022/02/26 08:00:18;;;;;;;51.13;41.83;;;3.70;99.90;;;;;;5038452;28;20450;-82
2022/02/26 08:02:45;;;;;;;100.73;33.40;;;3.70;99.90;;;;;;5037968;28;20499;-81
2022/02/26 08:05:12;;;;;;;50.07;26.13;;;3.60;99.90;;;;;;5038195;28;20506;-81
2022/02/26 08:07:40;;;;;;;61.03;26.50;;;3.60;99.90;;;;;;5038565;28;20453;-81
2022/02/26 08:10:07;;;;;;;59.30;29.43;;;3.90;99.90;;;;;;5038512;28;20460;-81
2022/02/26 08:12:34;;;;;;;45.73;25.27;;;3.80;99.90;;;;;;5038190;28;20549;-81
2022/02/26 08:15:01;;;;;;;54.67;24.40;;;3.90;99.90;;;;;;5037549;28;20445;-82
2022/02/26 08:17:28;;;;;;;55.13;25.83;;;4.00;99.90;;;;;;5038278;28;20562;-82
2022/02/26 08:19:55;;;;;;;53.60;26.03;;;3.90;99.90;;;;;;5038944;28;20457;-81
2022/02/26 08:22:22;;;;;;;43.63;23.27;;;4.00;99.90;;;;;;5038617;28;21028;-81
2022/02/26 08:24:50;;;;;;;53.70;23.93;;;4.20;99.90;;;;;;5037721;28;20874;-81
2022/02/26 08:27:17;;;;;;;59.27;46.77;;;4.00;99.90;;;;;;5036000;28;20458;-81
2022/02/26 08:29:44;;;;;;;75.23;30.23;;;3.90;99.90;;;;;;5038115;28;21904;-81
2022/02/26 08:32:10;;;;;;;64.27;24.90;;;4.10;99.90;;;;;;5039325;28;20453;-80
2022/02/26 08:34:37;;;;;;;42.67;24.30;;;4.20;99.90;;;;;;5037837;28;20462;-81
2022/02/26 08:37:04;;;;;;;56.77;38.30;;;4.30;99.90;;;;;;5038892;28;20459;-82
2022/02/26 08:39:31;;;;;;;64.97;27.30;;;4.50;99.90;;;;;;5033493;28;20458;-82
2022/02/26 08:42:00;;;;;;;52.87;25.60;;;4.40;99.90;;;;;;5037542;28;20671;-82
2022/02/26 08:44:26;;;;;;;48.30;23.63;;;4.30;99.90;;;;;;5035966;28;20481;-81
2022/02/26 08:46:54;;;;;;;73.80;38.50;;;4.30;99.90;;;;;;5038446;28;20453;-82
2022/02/26 08:49:20;;;;;;;54.30;26.33;;;4.40;99.90;;;;;;5036534;28;20451;-81
2022/02/26 08:51:47;;;;;;;41.97;22.63;;;4.40;99.90;;;;;;5038022;28;20454;-81
2022/02/26 08:54:14;;;;;;;42.47;26.77;;;4.50;99.90;;;;;;5035020;28;20489;-81
2022/02/26 08:56:41;;;;;;;40.30;21.10;;;4.90;99.90;;;;;;5040756;28;20467;-80
2022/02/26 08:59:09;;;;;;;69.93;25.13;;;4.90;99.90;;;;;;5028016;28;20448;-82
2022/02/26 09:01:37;;;;;;;42.63;22.60;;;5.00;99.90;;;;;;5029523;28;21085;-81
2022/02/26 09:04:04;;;;;;;38.47;21.47;;;5.10;99.90;;;;;;5028830;28;20492;-82
2022/02/26 09:06:31;;;;;;;45.93;21.87;;;5.20;99.90;;;;;;5032302;28;20457;-85
2022/02/26 09:08:58;;;;;;;45.50;22.20;;;5.40;99.90;;;;;;5029662;28;20490;-82
2022/02/26 09:11:26;;;;;;;38.70;21.67;;;5.00;99.90;;;;;;5033139;28;20443;-81
2022/02/26 09:13:55;;;;;;;46.30;22.97;;;5.00;99.90;;;;;;5029570;28;20486;-79
2022/02/26 09:16:24;;;;;;;37.03;20.50;;;5.00;99.90;;;;;;5030190;28;20460;-82
2022/02/26 09:18:51;;;;;;;36.93;20.60;;;5.00;99.90;;;;;;5032747;28;20458;-82
2022/02/26 09:21:17;;;;;;;37.20;20.13;;;5.30;99.90;;;;;;5028632;28;20837;-82
2022/02/26 09:23:44;;;;;;;41.70;20.30;;;5.50;99.90;;;;;;5030951;28;20491;-82
2022/02/26 09:26:11;;;;;;;52.43;21.77;;;5.60;99.90;;;;;;5028292;28;20467;-81
2022/02/26 09:28:40;;;;;;;37.30;21.27;;;5.40;99.90;;;;;;5028629;28;20902;-81
2022/02/26 09:31:11;;;;;;;34.43;19.43;;;5.60;99.90;;;;;;5028170;28;20553;-82
2022/02/26 09:33:40;;;;;;;37.00;18.63;;;5.90;99.90;;;;;;5030055;28;20582;-80
2022/02/26 09:36:08;;;;;;;37.73;20.40;;;5.90;99.90;;;;;;5026510;28;20487;-82
2022/02/26 09:38:38;;;;;;;36.00;18.20;;;5.80;99.90;;;;;;5033524;28;20461;-82
2022/02/26 09:41:06;;;;;;;32.40;19.50;;;6.10;99.90;;;;;;5026523;28;20445;-81
2022/02/26 09:43:33;;;;;;;34.20;17.37;;;6.90;99.90;;;;;;5017230;28;20492;-81
2022/02/26 09:46:03;;;;;;;28.50;15.97;;;8.60;99.90;;;;;;5033324;28;20467;-81
2022/02/26 09:48:30;;;;;;;30.23;17.23;;;10.50;99.90;;;;;;5035444;28;20461;-82
2022/02/26 09:50:59;;;;;;;23.53;15.87;;;11.80;99.90;;;;;;5037157;28;20518;-81
2022/02/26 09:53:26;;;;;;;26.07;17.53;;;12.60;99.90;;;;;;5034733;28;20492;-82
2022/02/26 09:55:54;;;;;;;24.23;17.50;;;12.50;99.90;;;;;;5037181;28;20498;-83
2022/02/26 09:58:22;;;;;;;22.70;14.40;;;11.90;99.90;;;;;;5027183;28;20805;-83
2022/02/26 10:00:49;;;;;;;21.07;13.97;;;12.10;99.90;;;;;;5041027;28;20523;-83
2022/02/26 10:03:30;;;;;;;22.87;14.90;;;13.20;99.90;;;;;;5040217;28;21155;-83
2022/02/26 10:06:11;;;;;;;21.67;14.10;;;14.70;99.90;;;;;;5037893;28;20462;-82
2022/02/26 10:08:40;;;;;;;22.30;13.13;;;16.00;99.90;;;;;;5031488;28;20448;-84
2022/02/26 10:11:07;;;;;;;21.17;14.00;;;16.00;99.90;;;;;;5037953;28;20459;-83
2022/02/26 10:13:44;;;;;;;18.40;13.33;;;15.60;99.90;;;;;;5049547;28;20550;-81
2022/02/26 10:16:11;;;;;;;22.30;14.60;;;15.50;99.50;;;;;;5046037;28;20461;-81
2022/02/26 10:18:37;;;;;;;23.23;14.47;;;14.40;99.90;;;;;;5049628;28;20450;-81
2022/02/26 10:21:05;;;;;;;21.87;15.27;;;14.60;99.90;;;;;;5052335;28;20460;-80
2022/02/26 10:23:33;;;;;;;24.23;13.70;;;13.80;99.90;;;;;;5047823;28;20570;-81
2022/02/26 10:26:11;;;;;;;24.50;13.83;;;13.40;99.90;;;;;;5040474;28;20541;-82
2022/02/26 10:28:41;;;;;;;22.77;12.67;;;13.30;99.90;;;;;;5040514;28;20508;-81
2022/02/26 10:31:08;;;;;;;22.50;11.73;;;13.80;99.90;;;;;;5040990;28;20800;-81
2022/02/26 10:33:35;;;;;;;24.30;11.87;;;13.00;99.90;;;;;;5039968;28;20486;-83
2022/02/26 10:36:07;;;;;;;19.87;11.60;;;13.10;99.90;;;;;;5040822;28;20488;-81
2022/02/26 10:38:36;;;;;;;20.47;12.07;;;12.70;99.90;;;;;;5040328;28;20445;-82
2022/02/26 10:41:08;;;;;;;19.43;11.60;;;13.40;99.90;;;;;;5039812;28;20598;-81
2022/02/26 10:43:44;;;;;;;19.13;12.37;;;14.80;99.90;;;;;;5040257;28;20574;-82
2022/02/26 10:46:23;;;;;;;18.70;12.27;;;16.20;99.90;;;;;;5043528;28;20482;-82
2022/02/26 10:48:51;;;;;;;16.87;11.60;;;17.30;93.90;;;;;;5041964;28;20486;-82
2022/02/26 10:51:20;;;;;;;20.10;11.63;;;18.80;90.00;;;;;;5041271;28;20459;-83
2022/02/26 10:53:50;;;;;;;22.23;12.00;;;20.30;82.80;;;;;;5039538;28;20502;-84
2022/02/26 10:56:17;;;;;;;17.30;11.10;;;20.80;71.90;;;;;;5040534;28;20546;-83
2022/02/26 10:58:45;;;;;;;17.23;10.70;;;21.40;67.40;;;;;;5045541;28;20511;-85
2022/02/26 11:01:16;;;;;;;17.70;12.23;;;22.40;64.30;;;;;;5041570;28;20448;-83
2022/02/26 11:03:43;;;;;;;19.40;11.70;;;20.80;62.20;;;;;;5039128;28;20565;-83
2022/02/26 11:06:12;;;;;;;18.80;14.37;;;22.30;64.80;;;;;;5041007;28;20457;-85
2022/02/26 11:08:40;;;;;;;20.33;13.00;;;21.80;60.20;;;;;;5039589;28;20457;-84
2022/02/26 11:11:09;;;;;;;20.07;11.40;;;22.20;59.10;;;;;;5039755;28;20463;-85
2022/02/26 11:13:37;;;;;;;15.77;10.10;;;23.40;58.90;;;;;;5040179;28;21071;-84
2022/02/26 11:16:06;;;;;;;17.17;10.70;;;22.80;56.40;;;;;;5040945;28;20457;-84
2022/02/26 11:18:42;;;;;;;19.80;11.17;;;22.50;56.10;;;;;;5041125;28;20452;-81
2022/02/26 11:21:11;;;;;;;16.10;10.43;;;22.20;55.60;;;;;;5040421;28;20476;-84
2022/02/26 11:23:38;;;;;;;19.37;12.17;;;20.20;57.20;;;;;;5040056;28;20583;-84
2022/02/26 11:26:07;;;;;;;16.43;10.53;;;17.70;58.90;;;;;;5040974;28;20453;-83
2022/02/26 11:28:35;;;;;;;25.07;12.70;;;14.70;61.20;;;;;;5039596;28;20456;-83
2022/02/26 11:31:07;;;;;;;24.87;11.50;;;14.20;67.80;;;;;;5038769;28;20536;-83
2022/02/26 11:33:36;;;;;;;15.37;7.03;;;14.60;70.70;;;;;;5039058;28;20464;-84
2022/02/26 11:36:05;;;;;;;15.83;7.70;;;14.60;68.40;;;;;;5038457;28;20614;-84
2022/02/26 11:38:35;;;;;;;19.03;8.57;;;13.80;68.40;;;;;;5039584;28;20473;-83
2022/02/26 11:41:24;;;;;;;18.10;8.83;;;13.00;72.30;;;;;;5035641;28;20829;-84
2022/02/26 11:43:53;;;;;;;23.07;9.03;;;12.20;78.40;;;;;;5036743;28;20483;-84
2022/02/26 11:46:33;;;;;;;20.03;7.97;;;12.20;87.40;;;;;;5039450;28;20447;-83
2022/02/26 11:49:13;;;;;;;31.90;14.83;;;12.50;98.90;;;;;;5039243;28;20551;-85
2022/02/26 11:51:45;;;;;;;15.23;7.50;;;12.30;99.90;;;;;;5058440;28;20447;-83
2022/02/26 11:54:16;;;;;;;16.17;7.93;;;11.90;94.20;;;;;;5041591;28;20484;-82
2022/02/26 11:56:44;;;;;;;20.00;7.10;;;12.10;97.20;;;;;;5040850;28;20462;-85
2022/02/26 11:59:13;;;;;;;18.20;7.40;;;11.50;99.60;;;;;;5039387;28;20797;-82
2022/02/26 12:02:03;;;;;;;17.50;6.73;;;11.20;99.90;;;;;;5040435;28;20463;-81
2022/02/26 12:04:43;;;;;;;15.20;6.30;;;11.20;99.90;;;;;;5026204;28;20475;-82
2022/02/26 12:07:10;;;;;;;12.70;6.20;;;11.30;99.90;;;;;;5039962;28;20469;-83
2022/02/26 12:09:59;;;;;;;22.10;7.07;;;11.60;99.90;;;;;;5039132;28;20490;-84
2022/02/26 12:12:35;;;;;;;27.27;15.70;;;11.40;99.90;;;;;;5034054;28;20495;-83
2022/02/26 12:15:06;;;;;;;13.47;6.70;;;10.70;99.90;;;;;;5038632;28;20528;-83
2022/02/26 12:17:33;;;;;;;17.50;5.70;;;11.10;99.90;;;;;;5038888;28;20448;-82
2022/02/26 12:20:00;;;;;;;15.00;5.63;;;11.50;99.90;;;;;;5038977;28;20990;-83
2022/02/26 12:22:34;;;;;;;11.40;5.57;;;12.10;99.90;;;;;;5039033;28;20495;-83
2022/02/26 12:25:11;;;;;;;18.53;6.33;;;12.20;99.80;;;;;;5037979;28;20460;-83
2022/02/26 12:27:38;;;;;;;16.43;5.83;;;12.40;99.90;;;;;;5039570;28;20472;-83
2022/02/26 12:30:11;;;;;;;18.13;6.17;;;11.70;99.90;;;;;;5039071;28;20980;-83
2022/02/26 12:32:53;;;;;;;14.20;6.97;;;11.30;99.90;;;;;;5039076;28;20479;-83
2022/02/26 12:35:20;;;;;;;14.07;4.93;;;12.30;99.90;;;;;;5038381;28;20502;-83
2022/02/26 12:37:48;;;;;;;18.50;4.50;;;13.50;99.80;;;;;;5036691;28;20465;-83
2022/02/26 12:40:20;;;;;;;13.00;3.57;;;15.60;90.10;;;;;;5032237;28;20521;-82
2022/02/26 12:42:48;;;;;;;13.03;3.93;;;16.20;75.40;;;;;;5037750;28;20492;-83
2022/02/26 12:45:18;;;;;;;11.17;3.87;;;15.70;76.40;;;;;;5038922;28;20454;-82